OCN5W EDDM-GMMX
Flight info
| Callsign | OCN5W |
|---|---|
| Flight time | N/A |
| Altitude | 37000 |
| Route | TURBU Y107 TOBSO DCT BAKOR DCT GEKBA DCT VAMTU DCT KOLON DCT GANGU DCT PADKO DCT DIVKO/N0459F390 DCT NILDU DCT NENDA N975 BCN M985 PIMOS N869 GALTO UN869 MABAP |
| Aircraft | A320/M-SDE2E3FGIJ1LORWXYZ/HB1 |
Departure
| Time | 2026-05-07 20:35 |
|---|---|
| Airport | Munich Airport (EDDM) |
Arrival
| Time | N/A |
|---|---|
| Airport | Marrakesh Menara Airport (GMMX) |
| Time | Latitude | Longitude | Altitude | Speed | Heading |
|---|---|---|---|---|---|
| 2026-05-07 20:13 | 48.35407 | 11.79756 | 1478 ft | 0 kts | 83° |
| 2026-05-07 20:25 | 48.35406 | 11.79737 | 1485 ft | 4 kts | 83° |
| 2026-05-07 20:26 | 48.35403 | 11.79697 | 1476 ft | 4 kts | 83° |
| 2026-05-07 20:26 | 48.35400 | 11.79663 | 1475 ft | 3 kts | 83° |
| 2026-05-07 20:26 | 48.35401 | 11.79625 | 1471 ft | 4 kts | 114° |
| 2026-05-07 20:26 | 48.35417 | 11.79598 | 1475 ft | 4 kts | 163° |
| 2026-05-07 20:27 | 48.35441 | 11.79592 | 1485 ft | 2 kts | 173° |
| 2026-05-07 20:27 | 48.35443 | 11.79592 | 1475 ft | 0 kts | 173° |
| 2026-05-07 20:29 | 48.35416 | 11.79597 | 1472 ft | 4 kts | 173° |
| 2026-05-07 20:30 | 48.35397 | 11.79600 | 1479 ft | 0 kts | 173° |
| 2026-05-07 20:31 | 48.35375 | 11.79604 | 1482 ft | 5 kts | 173° |
| 2026-05-07 20:31 | 48.35315 | 11.79615 | 1481 ft | 12 kts | 173° |
| 2026-05-07 20:31 | 48.35196 | 11.79635 | 1473 ft | 19 kts | 173° |
| 2026-05-07 20:31 | 48.35061 | 11.79658 | 1482 ft | 20 kts | 173° |
| 2026-05-07 20:32 | 48.34924 | 11.79682 | 1476 ft | 20 kts | 173° |
| 2026-05-07 20:32 | 48.34807 | 11.79735 | 1475 ft | 14 kts | 106° |
| 2026-05-07 20:32 | 48.34818 | 11.79913 | 1485 ft | 22 kts | 83° |
| 2026-05-07 20:32 | 48.34837 | 11.80149 | 1474 ft | 23 kts | 84° |
| 2026-05-07 20:33 | 48.34813 | 11.80355 | 1476 ft | 18 kts | 136° |
| 2026-05-07 20:33 | 48.34697 | 11.80405 | 1471 ft | 17 kts | 174° |
| 2026-05-07 20:33 | 48.34585 | 11.80421 | 1475 ft | 16 kts | 180° |
| 2026-05-07 20:33 | 48.34481 | 11.80371 | 1476 ft | 13 kts | 220° |
| 2026-05-07 20:34 | 48.34468 | 11.80322 | 1485 ft | 0 kts | 264° |
| 2026-05-07 20:34 | 48.34451 | 11.80075 | 1485 ft | 59 kts | 263° |
| 2026-05-07 20:35 | 48.34379 | 11.79137 | 1475 ft | 119 kts | 263° |
| 2026-05-07 20:35 | 48.34263 | 11.77647 | 1475 ft | 165 kts | 263° |
| 2026-05-07 20:35 | 48.34130 | 11.75842 | 1933 ft | 173 kts | 264° |
| 2026-05-07 20:35 | 48.34000 | 11.74049 | 2631 ft | 173 kts | 264° |
| 2026-05-07 20:36 | 48.33757 | 11.72295 | 3157 ft | 178 kts | 240° |
| 2026-05-07 20:36 | 48.32782 | 11.71055 | 3366 ft | 195 kts | 200° |
| 2026-05-07 20:36 | 48.31387 | 11.70813 | 3632 ft | 211 kts | 181° |
| 2026-05-07 20:36 | 48.29876 | 11.70824 | 3938 ft | 224 kts | 176° |
| 2026-05-07 20:37 | 48.28337 | 11.71369 | 4438 ft | 232 kts | 158° |
| 2026-05-07 20:37 | 48.26909 | 11.72653 | 4854 ft | 249 kts | 146° |
| 2026-05-07 20:37 | 48.25425 | 11.74196 | 5216 ft | 269 kts | 146° |
| 2026-05-07 20:37 | 48.23856 | 11.75809 | 5859 ft | 275 kts | 147° |
| 2026-05-07 20:38 | 48.22257 | 11.77418 | 6567 ft | 279 kts | 148° |
| 2026-05-07 20:38 | 48.20629 | 11.79045 | 7327 ft | 283 kts | 148° |
| 2026-05-07 20:38 | 48.18985 | 11.80693 | 8067 ft | 286 kts | 149° |
| 2026-05-07 20:38 | 48.17226 | 11.82061 | 8774 ft | 286 kts | 162° |
| 2026-05-07 20:39 | 48.15337 | 11.83007 | 9478 ft | 288 kts | 165° |
| 2026-05-07 20:39 | 48.13450 | 11.83934 | 10155 ft | 290 kts | 165° |
| 2026-05-07 20:39 | 48.11464 | 11.84907 | 10408 ft | 312 kts | 166° |
| 2026-05-07 20:39 | 48.09322 | 11.85953 | 10536 ft | 335 kts | 165° |
| 2026-05-07 20:40 | 48.07064 | 11.87071 | 10942 ft | 346 kts | 165° |
| 2026-05-07 20:40 | 48.04767 | 11.88232 | 11548 ft | 351 kts | 165° |
| 2026-05-07 20:40 | 48.02438 | 11.89404 | 12166 ft | 354 kts | 165° |
| 2026-05-07 20:40 | 48.00088 | 11.90578 | 12733 ft | 358 kts | 165° |
| 2026-05-07 20:41 | 47.97714 | 11.91759 | 13329 ft | 361 kts | 165° |
| 2026-05-07 20:41 | 47.95324 | 11.92944 | 13900 ft | 364 kts | 165° |
| 2026-05-07 20:41 | 47.92899 | 11.94112 | 14462 ft | 366 kts | 168° |
| 2026-05-07 20:41 | 47.90383 | 11.94773 | 15021 ft | 367 kts | 179° |
| 2026-05-07 20:42 | 47.87829 | 11.94803 | 15608 ft | 367 kts | 184° |
| 2026-05-07 20:42 | 47.85264 | 11.94744 | 16155 ft | 370 kts | 184° |
| 2026-05-07 20:42 | 47.82683 | 11.94696 | 16655 ft | 373 kts | 184° |
| 2026-05-07 20:42 | 47.80083 | 11.94656 | 17152 ft | 375 kts | 184° |
| 2026-05-07 20:43 | 47.77492 | 11.94610 | 17639 ft | 378 kts | 184° |
| 2026-05-07 20:43 | 47.74859 | 11.94558 | 18113 ft | 380 kts | 184° |
| 2026-05-07 20:43 | 47.72202 | 11.94505 | 18585 ft | 382 kts | 184° |
| 2026-05-07 20:43 | 47.69531 | 11.94462 | 19016 ft | 385 kts | 184° |
| 2026-05-07 20:44 | 47.66834 | 11.94419 | 19418 ft | 389 kts | 184° |
| 2026-05-07 20:44 | 47.64116 | 11.94368 | 19851 ft | 391 kts | 184° |
| 2026-05-07 20:44 | 47.61387 | 11.94318 | 20285 ft | 393 kts | 183° |
| 2026-05-07 20:44 | 47.58643 | 11.94284 | 20654 ft | 396 kts | 183° |
| 2026-05-07 20:45 | 47.55862 | 11.94237 | 21137 ft | 401 kts | 183° |
| 2026-05-07 20:45 | 47.53067 | 11.94182 | 21613 ft | 402 kts | 184° |
| 2026-05-07 20:45 | 47.50252 | 11.94123 | 22019 ft | 404 kts | 184° |
| 2026-05-07 20:45 | 47.47429 | 11.94068 | 22420 ft | 406 kts | 184° |
| 2026-05-07 20:46 | 47.44624 | 11.94016 | 22784 ft | 409 kts | 184° |
| 2026-05-07 20:46 | 47.41789 | 11.93739 | 23135 ft | 408 kts | 191° |
| 2026-05-07 20:46 | 47.38967 | 11.93176 | 23489 ft | 410 kts | 191° |
| 2026-05-07 20:46 | 47.36133 | 11.92617 | 23826 ft | 413 kts | 191° |
| 2026-05-07 20:47 | 47.33273 | 11.92046 | 24164 ft | 415 kts | 191° |
| 2026-05-07 20:47 | 47.30409 | 11.91465 | 24508 ft | 416 kts | 191° |
| 2026-05-07 20:47 | 47.27528 | 11.90889 | 24846 ft | 418 kts | 191° |
| 2026-05-07 20:47 | 47.24637 | 11.90316 | 25194 ft | 420 kts | 191° |
| 2026-05-07 20:48 | 47.21734 | 11.89736 | 25527 ft | 422 kts | 191° |
| 2026-05-07 20:48 | 47.18825 | 11.89156 | 25856 ft | 423 kts | 191° |
| 2026-05-07 20:48 | 47.15887 | 11.88570 | 26192 ft | 426 kts | 191° |
| 2026-05-07 20:48 | 47.12985 | 11.87997 | 26533 ft | 427 kts | 191° |
| 2026-05-07 20:49 | 47.10036 | 11.87422 | 26863 ft | 428 kts | 191° |
| 2026-05-07 20:49 | 47.07077 | 11.86845 | 27147 ft | 429 kts | 191° |
| 2026-05-07 20:49 | 47.04108 | 11.86260 | 27450 ft | 430 kts | 192° |
| 2026-05-07 20:49 | 47.01128 | 11.85657 | 27743 ft | 433 kts | 193° |
| 2026-05-07 20:50 | 46.98167 | 11.84901 | 28064 ft | 432 kts | 195° |
| 2026-05-07 20:50 | 46.95230 | 11.83995 | 28338 ft | 431 kts | 197° |
| 2026-05-07 20:50 | 46.92304 | 11.82998 | 28593 ft | 430 kts | 198° |
| 2026-05-07 20:50 | 46.89388 | 11.81982 | 28827 ft | 431 kts | 198° |
| 2026-05-07 20:51 | 46.86461 | 11.80969 | 29045 ft | 433 kts | 198° |
| 2026-05-07 20:51 | 46.83521 | 11.79981 | 29293 ft | 434 kts | 198° |
| 2026-05-07 20:51 | 46.80565 | 11.79023 | 29540 ft | 435 kts | 198° |
| 2026-05-07 20:51 | 46.77601 | 11.78080 | 29775 ft | 437 kts | 198° |
| 2026-05-07 20:52 | 46.74624 | 11.77149 | 30026 ft | 438 kts | 197° |
| 2026-05-07 20:52 | 46.71685 | 11.76237 | 30279 ft | 438 kts | 198° |
| 2026-05-07 20:52 | 46.68711 | 11.75314 | 30617 ft | 436 kts | 198° |
| 2026-05-07 20:52 | 46.65761 | 11.74332 | 30966 ft | 431 kts | 202° |
| 2026-05-07 20:53 | 46.62992 | 11.72801 | 31286 ft | 421 kts | 212° |
| 2026-05-07 20:53 | 46.60488 | 11.70642 | 31526 ft | 416 kts | 221° |
| 2026-05-07 20:53 | 46.58312 | 11.67938 | 31808 ft | 408 kts | 230° |
| 2026-05-07 20:53 | 46.56468 | 11.64848 | 32025 ft | 404 kts | 234° |
| 2026-05-07 20:54 | 46.54711 | 11.61673 | 32249 ft | 405 kts | 234° |
| 2026-05-07 20:54 | 46.52941 | 11.58475 | 32522 ft | 404 kts | 234° |
| 2026-05-07 20:54 | 46.51181 | 11.55299 | 32776 ft | 403 kts | 234° |
| 2026-05-07 20:54 | 46.49425 | 11.52131 | 32981 ft | 403 kts | 234° |
| 2026-05-07 20:55 | 46.47668 | 11.48966 | 33030 ft | 403 kts | 234° |
| 2026-05-07 20:55 | 46.44145 | 11.42641 | 33023 ft | 402 kts | 234° |
| 2026-05-07 20:56 | 46.40621 | 11.36328 | 33014 ft | 402 kts | 234° |
| 2026-05-07 20:56 | 46.37105 | 11.30030 | 33021 ft | 402 kts | 234° |
| 2026-05-07 20:57 | 46.33576 | 11.23734 | 33027 ft | 403 kts | 234° |
| 2026-05-07 20:57 | 46.30032 | 11.17445 | 33057 ft | 403 kts | 234° |
| 2026-05-07 20:58 | 46.26515 | 11.11189 | 33074 ft | 403 kts | 234° |
| 2026-05-07 20:58 | 46.22989 | 11.04913 | 33097 ft | 402 kts | 234° |
| 2026-05-07 20:59 | 46.19440 | 10.98639 | 33105 ft | 404 kts | 234° |
| 2026-05-07 20:59 | 46.15888 | 10.92403 | 33110 ft | 404 kts | 234° |
| 2026-05-07 21:00 | 46.12329 | 10.86132 | 33106 ft | 403 kts | 234° |
| 2026-05-07 21:00 | 46.08775 | 10.79874 | 33100 ft | 403 kts | 234° |
| 2026-05-07 21:01 | 46.05204 | 10.73633 | 33099 ft | 404 kts | 234° |
| 2026-05-07 21:01 | 46.01628 | 10.67392 | 33084 ft | 403 kts | 234° |
| 2026-05-07 21:02 | 45.98063 | 10.61159 | 33077 ft | 403 kts | 234° |
| 2026-05-07 21:02 | 45.94533 | 10.55009 | 33070 ft | 400 kts | 234° |
| 2026-05-07 21:03 | 45.90986 | 10.48842 | 33069 ft | 401 kts | 234° |
| 2026-05-07 21:03 | 45.87424 | 10.42663 | 33062 ft | 401 kts | 234° |
| 2026-05-07 21:04 | 45.83864 | 10.36516 | 33061 ft | 401 kts | 234° |
| 2026-05-07 21:04 | 45.80302 | 10.30366 | 33042 ft | 400 kts | 234° |
| 2026-05-07 21:05 | 45.76728 | 10.24218 | 33026 ft | 401 kts | 234° |
| 2026-05-07 21:05 | 45.73181 | 10.18115 | 33017 ft | 401 kts | 233° |
| 2026-05-07 21:06 | 45.69579 | 10.11943 | 33009 ft | 401 kts | 233° |
| 2026-05-07 21:06 | 45.65988 | 10.05803 | 33332 ft | 402 kts | 233° |
| 2026-05-07 21:06 | 45.64224 | 10.02783 | 33632 ft | 400 kts | 233° |
| 2026-05-07 21:07 | 45.62427 | 9.99722 | 33908 ft | 400 kts | 232° |
| 2026-05-07 21:07 | 45.60643 | 9.96705 | 34153 ft | 398 kts | 232° |
| 2026-05-07 21:07 | 45.58859 | 9.93679 | 34407 ft | 398 kts | 232° |
| 2026-05-07 21:07 | 45.57077 | 9.90652 | 34644 ft | 397 kts | 232° |
| 2026-05-07 21:08 | 45.55298 | 9.87630 | 34817 ft | 398 kts | 233° |
| 2026-05-07 21:08 | 45.53538 | 9.84641 | 35008 ft | 398 kts | 232° |
| 2026-05-07 21:08 | 45.51759 | 9.81616 | 35193 ft | 397 kts | 232° |
| 2026-05-07 21:08 | 45.49984 | 9.78606 | 35373 ft | 397 kts | 232° |
| 2026-05-07 21:09 | 45.48204 | 9.75593 | 35537 ft | 397 kts | 232° |
| 2026-05-07 21:09 | 45.46429 | 9.72583 | 35701 ft | 397 kts | 232° |
| 2026-05-07 21:09 | 45.44652 | 9.69578 | 35857 ft | 397 kts | 232° |
| 2026-05-07 21:09 | 45.42862 | 9.66559 | 36018 ft | 398 kts | 232° |
| 2026-05-07 21:10 | 45.41079 | 9.63555 | 36200 ft | 396 kts | 232° |
| 2026-05-07 21:10 | 45.39306 | 9.60562 | 36337 ft | 396 kts | 232° |
| 2026-05-07 21:10 | 45.37529 | 9.57573 | 36461 ft | 397 kts | 232° |
| 2026-05-07 21:10 | 45.35746 | 9.54589 | 36585 ft | 395 kts | 232° |
| 2026-05-07 21:11 | 45.33987 | 9.51653 | 36714 ft | 394 kts | 232° |
| 2026-05-07 21:11 | 45.32207 | 9.48679 | 36849 ft | 394 kts | 232° |
| 2026-05-07 21:11 | 45.28670 | 9.42770 | 37026 ft | 390 kts | 232° |
| 2026-05-07 21:12 | 45.25161 | 9.36920 | 37022 ft | 387 kts | 232° |
| 2026-05-07 21:12 | 45.21670 | 9.31091 | 37026 ft | 388 kts | 232° |
| 2026-05-07 21:13 | 45.18161 | 9.25271 | 37033 ft | 387 kts | 231° |
| 2026-05-07 21:13 | 45.14709 | 9.19511 | 37018 ft | 386 kts | 232° |
| 2026-05-07 21:14 | 45.11219 | 9.13726 | 37027 ft | 384 kts | 231° |
| 2026-05-07 21:14 | 45.07734 | 9.07984 | 37018 ft | 386 kts | 232° |
| 2026-05-07 21:15 | 45.04236 | 9.02226 | 37023 ft | 385 kts | 231° |
| 2026-05-07 21:15 | 45.00733 | 8.96473 | 37025 ft | 386 kts | 231° |
| 2026-05-07 21:16 | 44.97209 | 8.90706 | 37027 ft | 390 kts | 231° |
| 2026-05-07 21:16 | 44.94251 | 8.85845 | 37027 ft | 394 kts | 231° |
| 2026-05-07 21:17 | 44.90675 | 8.79974 | 37030 ft | 395 kts | 231° |
| 2026-05-07 21:17 | 44.87084 | 8.74103 | 37033 ft | 395 kts | 231° |
| 2026-05-07 21:18 | 44.83494 | 8.68264 | 37033 ft | 394 kts | 231° |
| 2026-05-07 21:18 | 44.79895 | 8.62433 | 37015 ft | 395 kts | 231° |
| 2026-05-07 21:19 | 44.76319 | 8.56628 | 37022 ft | 395 kts | 231° |
| 2026-05-07 21:19 | 44.72740 | 8.50837 | 37024 ft | 393 kts | 230° |
| 2026-05-07 21:20 | 44.69138 | 8.45036 | 37020 ft | 393 kts | 230° |
| 2026-05-07 21:20 | 44.65532 | 8.39235 | 37043 ft | 395 kts | 230° |
| 2026-05-07 21:21 | 44.61928 | 8.33434 | 37043 ft | 392 kts | 230° |
| 2026-05-07 21:21 | 44.58325 | 8.27641 | 37042 ft | 394 kts | 230° |
| 2026-05-07 21:22 | 44.54715 | 8.21849 | 37053 ft | 393 kts | 231° |
| 2026-05-07 21:22 | 44.51117 | 8.16094 | 37032 ft | 392 kts | 230° |
| 2026-05-07 21:23 | 44.47516 | 8.10350 | 37037 ft | 392 kts | 230° |
| 2026-05-07 21:23 | 44.43907 | 8.04651 | 37025 ft | 391 kts | 230° |
| 2026-05-07 21:24 | 44.40319 | 7.98928 | 37036 ft | 391 kts | 230° |
| 2026-05-07 21:24 | 44.36732 | 7.93210 | 37032 ft | 391 kts | 230° |
| 2026-05-07 21:25 | 44.33127 | 7.87502 | 37016 ft | 392 kts | 229° |
| 2026-05-07 21:25 | 44.29522 | 7.81833 | 37029 ft | 392 kts | 229° |
| 2026-05-07 21:26 | 44.25746 | 7.76320 | 37048 ft | 393 kts | 223° |
| 2026-05-07 21:26 | 44.21657 | 7.71272 | 37040 ft | 394 kts | 223° |
| 2026-05-07 21:27 | 44.17555 | 7.66218 | 37046 ft | 394 kts | 223° |
| 2026-05-07 21:27 | 44.13588 | 7.60990 | 37013 ft | 393 kts | 230° |
| 2026-05-07 21:28 | 44.09988 | 7.55211 | 37012 ft | 395 kts | 230° |
| 2026-05-07 21:28 | 44.06382 | 7.49471 | 37024 ft | 397 kts | 230° |
| 2026-05-07 21:29 | 44.02764 | 7.43685 | 37023 ft | 397 kts | 230° |
| 2026-05-07 21:29 | 43.99148 | 7.37915 | 37022 ft | 398 kts | 230° |
| 2026-05-07 21:30 | 43.95509 | 7.32131 | 37045 ft | 399 kts | 230° |
| 2026-05-07 21:30 | 43.91853 | 7.26352 | 37047 ft | 397 kts | 229° |
| 2026-05-07 21:31 | 43.88217 | 7.20597 | 37042 ft | 396 kts | 229° |
| 2026-05-07 21:31 | 43.84588 | 7.14843 | 37032 ft | 396 kts | 229° |
| 2026-05-07 21:32 | 43.80960 | 7.09115 | 37018 ft | 396 kts | 229° |
| 2026-05-07 21:32 | 43.77310 | 7.03380 | 36993 ft | 399 kts | 229° |
| 2026-05-07 21:33 | 43.73641 | 6.97596 | 36994 ft | 401 kts | 231° |
| 2026-05-07 21:33 | 43.70896 | 6.90916 | 37001 ft | 402 kts | 246° |
| 2026-05-07 21:34 | 43.68816 | 6.83813 | 36996 ft | 401 kts | 246° |
| 2026-05-07 21:34 | 43.66204 | 6.77047 | 36999 ft | 399 kts | 237° |
| 2026-05-07 21:35 | 43.63269 | 6.70559 | 36998 ft | 399 kts | 237° |
| 2026-05-07 21:35 | 43.60316 | 6.64050 | 37000 ft | 400 kts | 237° |
| 2026-05-07 21:36 | 43.57347 | 6.57539 | 36998 ft | 400 kts | 237° |
| 2026-05-07 21:36 | 43.54380 | 6.51049 | 36994 ft | 401 kts | 237° |
| 2026-05-07 21:37 | 43.51403 | 6.44537 | 36989 ft | 403 kts | 237° |
| 2026-05-07 21:37 | 43.48401 | 6.38006 | 36989 ft | 403 kts | 237° |
| 2026-05-07 21:38 | 43.45406 | 6.31478 | 36994 ft | 403 kts | 237° |
| 2026-05-07 21:38 | 43.42391 | 6.24941 | 37011 ft | 405 kts | 237° |
| 2026-05-07 21:39 | 43.39384 | 6.18426 | 37016 ft | 404 kts | 237° |
| 2026-05-07 21:39 | 43.36371 | 6.11911 | 37025 ft | 404 kts | 237° |
| 2026-05-07 21:40 | 43.33341 | 6.05387 | 37001 ft | 405 kts | 237° |
| 2026-05-07 21:40 | 43.30315 | 5.98871 | 36992 ft | 406 kts | 237° |
| 2026-05-07 21:41 | 43.27285 | 5.92369 | 37004 ft | 405 kts | 236° |
| 2026-05-07 21:41 | 43.24245 | 5.85863 | 37015 ft | 404 kts | 237° |
| 2026-05-07 21:42 | 43.21227 | 5.79403 | 37022 ft | 405 kts | 236° |
| 2026-05-07 21:42 | 43.18184 | 5.72925 | 37019 ft | 403 kts | 236° |
| 2026-05-07 21:43 | 43.15136 | 5.66453 | 37017 ft | 403 kts | 236° |
| 2026-05-07 21:43 | 43.12090 | 5.59980 | 37013 ft | 405 kts | 236° |
| 2026-05-07 21:44 | 43.09032 | 5.53503 | 37000 ft | 406 kts | 236° |
| 2026-05-07 21:44 | 43.05966 | 5.47009 | 37004 ft | 407 kts | 237° |
| 2026-05-07 21:45 | 43.02894 | 5.40546 | 37005 ft | 409 kts | 236° |
| 2026-05-07 21:45 | 42.99897 | 5.34242 | 37028 ft | 408 kts | 236° |
| 2026-05-07 21:46 | 42.96885 | 5.27926 | 37049 ft | 408 kts | 236° |
| 2026-05-07 21:46 | 42.93794 | 5.21446 | 37031 ft | 407 kts | 236° |
| 2026-05-07 21:47 | 42.90692 | 5.14950 | 37054 ft | 409 kts | 236° |
| 2026-05-07 21:47 | 42.87579 | 5.08447 | 37050 ft | 409 kts | 236° |
| 2026-05-07 21:48 | 42.84465 | 5.01959 | 37030 ft | 409 kts | 236° |
| 2026-05-07 21:48 | 42.81340 | 4.95490 | 37045 ft | 408 kts | 236° |
| 2026-05-07 21:49 | 42.78215 | 4.89025 | 37039 ft | 409 kts | 236° |
| 2026-05-07 21:49 | 42.75093 | 4.82548 | 37035 ft | 409 kts | 236° |
| 2026-05-07 21:50 | 42.71969 | 4.76082 | 37017 ft | 408 kts | 236° |
| 2026-05-07 21:50 | 42.68857 | 4.69677 | 37030 ft | 409 kts | 235° |
| 2026-05-07 21:51 | 42.65725 | 4.63241 | 36983 ft | 407 kts | 235° |
| 2026-05-07 21:51 | 42.62603 | 4.56830 | 36993 ft | 407 kts | 235° |
| 2026-05-07 21:52 | 42.59467 | 4.50421 | 37005 ft | 406 kts | 236° |
| 2026-05-07 21:52 | 42.56332 | 4.44025 | 37005 ft | 408 kts | 235° |
| 2026-05-07 21:53 | 42.53182 | 4.37609 | 37013 ft | 409 kts | 235° |
| 2026-05-07 21:53 | 42.50027 | 4.31202 | 37012 ft | 409 kts | 235° |
| 2026-05-07 21:54 | 42.46869 | 4.24813 | 37035 ft | 411 kts | 234° |
| 2026-05-07 21:54 | 42.43692 | 4.18375 | 37046 ft | 411 kts | 234° |
| 2026-05-07 21:55 | 42.40508 | 4.11949 | 37043 ft | 410 kts | 234° |
| 2026-05-07 21:55 | 42.37328 | 4.05539 | 37041 ft | 410 kts | 234° |
| 2026-05-07 21:56 | 42.34164 | 3.99169 | 37019 ft | 407 kts | 234° |
| 2026-05-07 21:56 | 42.31027 | 3.92846 | 37012 ft | 407 kts | 234° |
| 2026-05-07 21:57 | 42.27851 | 3.86516 | 36978 ft | 407 kts | 234° |
| 2026-05-07 21:57 | 42.24659 | 3.80189 | 36981 ft | 408 kts | 234° |
| 2026-05-07 21:58 | 42.21383 | 3.73942 | 36980 ft | 408 kts | 233° |
| 2026-05-07 21:58 | 42.18065 | 3.67728 | 36986 ft | 409 kts | 233° |
| 2026-05-07 21:59 | 42.14754 | 3.61488 | 36998 ft | 409 kts | 233° |
| 2026-05-07 21:59 | 42.11465 | 3.55273 | 37009 ft | 410 kts | 233° |
| 2026-05-07 22:00 | 42.08141 | 3.49005 | 37023 ft | 412 kts | 233° |
| 2026-05-07 22:00 | 42.04813 | 3.42721 | 37028 ft | 412 kts | 233° |
| 2026-05-07 22:01 | 42.01477 | 3.36459 | 37018 ft | 412 kts | 233° |
| 2026-05-07 22:01 | 41.98125 | 3.30186 | 37049 ft | 411 kts | 233° |
| 2026-05-07 22:02 | 41.94788 | 3.23943 | 37040 ft | 411 kts | 233° |
| 2026-05-07 22:02 | 41.91425 | 3.17686 | 37053 ft | 415 kts | 233° |
| 2026-05-07 22:03 | 41.88624 | 3.12464 | 37047 ft | 415 kts | 233° |
| 2026-05-07 22:03 | 41.84701 | 3.05168 | 37053 ft | 415 kts | 233° |
| 2026-05-07 22:04 | 41.81313 | 2.98889 | 37043 ft | 415 kts | 233° |
| 2026-05-07 22:04 | 41.78465 | 2.93633 | 37018 ft | 416 kts | 233° |
| 2026-05-07 22:05 | 41.75064 | 2.87350 | 37048 ft | 421 kts | 233° |
| 2026-05-07 22:05 | 41.71627 | 2.81005 | 37032 ft | 420 kts | 233° |
| 2026-05-07 22:06 | 41.68192 | 2.74680 | 37041 ft | 419 kts | 233° |
| 2026-05-07 22:06 | 41.64660 | 2.68466 | 37047 ft | 419 kts | 231° |
| 2026-05-07 22:07 | 41.61035 | 2.62342 | 37052 ft | 418 kts | 231° |
| 2026-05-07 22:07 | 41.57447 | 2.56273 | 37046 ft | 419 kts | 231° |
| 2026-05-07 22:08 | 41.53839 | 2.50089 | 37045 ft | 420 kts | 231° |
| 2026-05-07 22:08 | 41.50277 | 2.43986 | 37022 ft | 419 kts | 231° |
| 2026-05-07 22:09 | 41.46690 | 2.37851 | 37037 ft | 418 kts | 232° |
| 2026-05-07 22:09 | 41.43085 | 2.31729 | 37006 ft | 419 kts | 231° |
| 2026-05-07 22:10 | 41.39491 | 2.25611 | 37022 ft | 418 kts | 231° |
| 2026-05-07 22:10 | 41.35898 | 2.19515 | 37029 ft | 417 kts | 231° |
| 2026-05-07 22:11 | 41.32288 | 2.13421 | 37017 ft | 419 kts | 231° |
| 2026-05-07 22:11 | 41.28614 | 2.07428 | 37006 ft | 418 kts | 229° |
| 2026-05-07 22:12 | 41.24712 | 2.01710 | 37002 ft | 417 kts | 227° |
| 2026-05-07 22:12 | 41.20760 | 1.96029 | 37003 ft | 420 kts | 228° |
| 2026-05-07 22:13 | 41.16853 | 1.90316 | 37006 ft | 419 kts | 229° |
| 2026-05-07 22:13 | 41.12954 | 1.84564 | 37005 ft | 420 kts | 229° |
| 2026-05-07 22:14 | 41.09044 | 1.78782 | 37011 ft | 421 kts | 229° |
| 2026-05-07 22:14 | 41.05119 | 1.72998 | 37027 ft | 423 kts | 229° |
| 2026-05-07 22:15 | 41.01175 | 1.67213 | 37024 ft | 423 kts | 229° |
| 2026-05-07 22:15 | 40.97207 | 1.61398 | 37041 ft | 426 kts | 229° |
| 2026-05-07 22:16 | 40.93390 | 1.55835 | 37044 ft | 425 kts | 229° |
| 2026-05-07 22:16 | 40.89513 | 1.50195 | 37055 ft | 426 kts | 229° |
| 2026-05-07 22:17 | 40.85522 | 1.44382 | 37045 ft | 426 kts | 229° |
| 2026-05-07 22:17 | 40.81535 | 1.38603 | 37050 ft | 425 kts | 229° |
| 2026-05-07 22:18 | 40.75598 | 1.30008 | 37055 ft | 424 kts | 229° |
| 2026-05-07 22:19 | 40.71629 | 1.24282 | 37055 ft | 423 kts | 229° |
| 2026-05-07 22:19 | 40.67719 | 1.18612 | 37015 ft | 415 kts | 229° |
| 2026-05-07 22:20 | 40.63801 | 1.12963 | 37003 ft | 418 kts | 229° |
| 2026-05-07 22:20 | 40.59845 | 1.07284 | 36994 ft | 423 kts | 229° |
| 2026-05-07 22:21 | 40.55864 | 1.01570 | 37016 ft | 424 kts | 229° |
| 2026-05-07 22:21 | 40.51898 | 0.95894 | 37041 ft | 425 kts | 230° |
| 2026-05-07 22:22 | 40.47889 | 0.90184 | 37049 ft | 424 kts | 230° |
| 2026-05-07 22:22 | 40.43877 | 0.84469 | 37056 ft | 425 kts | 230° |
| 2026-05-07 22:23 | 40.39877 | 0.78775 | 37045 ft | 424 kts | 230° |
| 2026-05-07 22:23 | 40.35882 | 0.73100 | 37051 ft | 423 kts | 230° |
| 2026-05-07 22:24 | 40.31882 | 0.67443 | 37045 ft | 424 kts | 230° |
| 2026-05-07 22:24 | 40.27874 | 0.61773 | 37038 ft | 424 kts | 231° |
| 2026-05-07 22:25 | 40.23870 | 0.56113 | 37040 ft | 424 kts | 230° |
| 2026-05-07 22:25 | 40.19848 | 0.50473 | 37030 ft | 423 kts | 231° |
| 2026-05-07 22:26 | 40.15855 | 0.44845 | 37032 ft | 422 kts | 231° |
| 2026-05-07 22:26 | 40.11861 | 0.39218 | 37047 ft | 422 kts | 231° |
| 2026-05-07 22:27 | 40.07852 | 0.33605 | 37041 ft | 422 kts | 231° |
| 2026-05-07 22:27 | 40.03871 | 0.28037 | 37047 ft | 422 kts | 231° |
| 2026-05-07 22:28 | 39.99855 | 0.22433 | 37052 ft | 422 kts | 231° |
| 2026-05-07 22:28 | 39.95854 | 0.16848 | 37043 ft | 421 kts | 231° |
| 2026-05-07 22:29 | 39.91854 | 0.11289 | 37043 ft | 422 kts | 231° |
| 2026-05-07 22:29 | 39.87847 | 0.05728 | 37060 ft | 421 kts | 231° |
| 2026-05-07 22:30 | 39.83837 | 0.00162 | 37055 ft | 421 kts | 231° |
| 2026-05-07 22:30 | 39.79820 | -0.05417 | 37048 ft | 421 kts | 234° |
| 2026-05-07 22:31 | 39.75824 | -0.10983 | 37051 ft | 420 kts | 233° |
| 2026-05-07 22:31 | 39.71841 | -0.16444 | 37049 ft | 418 kts | 233° |
| 2026-05-07 22:32 | 39.67830 | -0.21912 | 37030 ft | 417 kts | 233° |
| 2026-05-07 22:32 | 39.63855 | -0.27378 | 37021 ft | 417 kts | 233° |
| 2026-05-07 22:33 | 39.59889 | -0.32837 | 37022 ft | 415 kts | 233° |
| 2026-05-07 22:33 | 39.55918 | -0.38272 | 37029 ft | 415 kts | 233° |
| 2026-05-07 22:34 | 39.51934 | -0.43694 | 37017 ft | 414 kts | 233° |
| 2026-05-07 22:34 | 39.48074 | -0.49120 | 37005 ft | 408 kts | 239° |
| 2026-05-07 22:35 | 39.44657 | -0.54985 | 37013 ft | 408 kts | 239° |
| 2026-05-07 22:35 | 39.41223 | -0.60853 | 37002 ft | 409 kts | 239° |
| 2026-05-07 22:36 | 39.37774 | -0.66712 | 37013 ft | 409 kts | 239° |
| 2026-05-07 22:36 | 39.34339 | -0.72571 | 37015 ft | 409 kts | 239° |
| 2026-05-07 22:37 | 39.30893 | -0.78432 | 37015 ft | 411 kts | 239° |
| 2026-05-07 22:37 | 39.27421 | -0.84306 | 37032 ft | 412 kts | 239° |
| 2026-05-07 22:38 | 39.23945 | -0.90177 | 37031 ft | 413 kts | 239° |
| 2026-05-07 22:38 | 39.20471 | -0.96032 | 37041 ft | 413 kts | 239° |
| 2026-05-07 22:39 | 39.16978 | -1.01921 | 37042 ft | 412 kts | 239° |
| 2026-05-07 22:39 | 39.13502 | -1.07771 | 37024 ft | 412 kts | 239° |
| 2026-05-07 22:40 | 39.10008 | -1.13620 | 37041 ft | 411 kts | 239° |
| 2026-05-07 22:40 | 39.06524 | -1.19461 | 37046 ft | 411 kts | 239° |
| 2026-05-07 22:41 | 39.03035 | -1.25286 | 37050 ft | 411 kts | 239° |
| 2026-05-07 22:41 | 38.99560 | -1.31083 | 37049 ft | 410 kts | 239° |
| 2026-05-07 22:42 | 38.96087 | -1.36884 | 37033 ft | 410 kts | 239° |
| 2026-05-07 22:42 | 38.92610 | -1.42674 | 37034 ft | 408 kts | 238° |
| 2026-05-07 22:43 | 38.89135 | -1.48443 | 37045 ft | 408 kts | 238° |
| 2026-05-07 22:43 | 38.85658 | -1.54208 | 37045 ft | 408 kts | 238° |
| 2026-05-07 22:44 | 38.82183 | -1.59973 | 37043 ft | 408 kts | 239° |
| 2026-05-07 22:44 | 38.78697 | -1.65728 | 37044 ft | 408 kts | 239° |
| 2026-05-07 22:45 | 38.75228 | -1.71419 | 37048 ft | 407 kts | 238° |
| 2026-05-07 22:45 | 38.71740 | -1.77173 | 37058 ft | 405 kts | 238° |
| 2026-05-07 22:46 | 38.68303 | -1.82843 | 37033 ft | 404 kts | 238° |
| 2026-05-07 22:46 | 38.64834 | -1.88506 | 37020 ft | 403 kts | 238° |
| 2026-05-07 22:47 | 38.61369 | -1.94151 | 37010 ft | 403 kts | 238° |
| 2026-05-07 22:47 | 38.57919 | -1.99789 | 37009 ft | 402 kts | 238° |
| 2026-05-07 22:48 | 38.54490 | -2.05394 | 37017 ft | 403 kts | 238° |
| 2026-05-07 22:48 | 38.51030 | -2.11022 | 37030 ft | 402 kts | 238° |
| 2026-05-07 22:49 | 38.47578 | -2.16635 | 37026 ft | 401 kts | 238° |
| 2026-05-07 22:49 | 38.44706 | -2.21289 | 37023 ft | 401 kts | 238° |
| 2026-05-07 22:50 | 38.41252 | -2.26888 | 37035 ft | 402 kts | 238° |
| 2026-05-07 22:50 | 38.37800 | -2.32498 | 37023 ft | 403 kts | 238° |
| 2026-05-07 22:51 | 38.34128 | -2.37927 | 37015 ft | 406 kts | 233° |
| 2026-05-07 22:51 | 38.30234 | -2.43148 | 37019 ft | 406 kts | 233° |
| 2026-05-07 22:52 | 38.26324 | -2.48391 | 37018 ft | 409 kts | 233° |
| 2026-05-07 22:52 | 38.22405 | -2.53635 | 37031 ft | 409 kts | 233° |
| 2026-05-07 22:53 | 38.18516 | -2.58834 | 37047 ft | 409 kts | 233° |
| 2026-05-07 22:53 | 38.14580 | -2.64093 | 37047 ft | 409 kts | 233° |
| 2026-05-07 22:54 | 38.10670 | -2.69310 | 37031 ft | 405 kts | 232° |
| 2026-05-07 22:54 | 38.06770 | -2.74496 | 37021 ft | 405 kts | 233° |
| 2026-05-07 22:55 | 38.02893 | -2.79642 | 37022 ft | 405 kts | 233° |
| 2026-05-07 22:55 | 37.98984 | -2.84821 | 37006 ft | 406 kts | 233° |
| 2026-05-07 22:56 | 37.95081 | -2.89991 | 37021 ft | 405 kts | 232° |
| 2026-05-07 22:56 | 37.91176 | -2.95154 | 37019 ft | 405 kts | 232° |
| 2026-05-07 22:57 | 37.87301 | -3.00285 | 37013 ft | 406 kts | 232° |
| 2026-05-07 22:57 | 37.83384 | -3.05453 | 37028 ft | 406 kts | 232° |
| 2026-05-07 22:58 | 37.79466 | -3.10602 | 37023 ft | 407 kts | 232° |
| 2026-05-07 22:58 | 37.75546 | -3.15744 | 37021 ft | 404 kts | 232° |
| 2026-05-07 22:59 | 37.71648 | -3.20868 | 37004 ft | 402 kts | 232° |
| 2026-05-07 22:59 | 37.67791 | -3.25914 | 36996 ft | 403 kts | 232° |
| 2026-05-07 23:00 | 37.63894 | -3.31023 | 36994 ft | 404 kts | 232° |
| 2026-05-07 23:00 | 37.59996 | -3.36104 | 36995 ft | 403 kts | 232° |
| 2026-05-07 23:01 | 37.56103 | -3.41165 | 36992 ft | 404 kts | 232° |
| 2026-05-07 23:01 | 37.52191 | -3.46256 | 37009 ft | 405 kts | 232° |
| 2026-05-07 23:02 | 37.48282 | -3.51352 | 37019 ft | 405 kts | 232° |
| 2026-05-07 23:02 | 37.44363 | -3.56438 | 37014 ft | 405 kts | 231° |
| 2026-05-07 23:03 | 37.40423 | -3.61527 | 37015 ft | 405 kts | 231° |
| 2026-05-07 23:03 | 37.36485 | -3.66618 | 37014 ft | 404 kts | 231° |
| 2026-05-07 23:04 | 37.32581 | -3.71657 | 37006 ft | 405 kts | 232° |
| 2026-05-07 23:04 | 37.28639 | -3.76744 | 37017 ft | 409 kts | 231° |
| 2026-05-07 23:05 | 37.24654 | -3.81868 | 37019 ft | 410 kts | 231° |
| 2026-05-07 23:05 | 37.20684 | -3.86975 | 37023 ft | 408 kts | 231° |
| 2026-05-07 23:06 | 37.16751 | -3.92005 | 37018 ft | 406 kts | 231° |
| 2026-05-07 23:06 | 37.12805 | -3.97066 | 36996 ft | 406 kts | 231° |
| 2026-05-07 23:07 | 37.08855 | -4.02116 | 36998 ft | 405 kts | 231° |
| 2026-05-07 23:07 | 37.04915 | -4.07143 | 36997 ft | 404 kts | 230° |
| 2026-05-07 23:08 | 37.00986 | -4.12138 | 36994 ft | 402 kts | 230° |
| 2026-05-07 23:08 | 36.97065 | -4.17133 | 36996 ft | 403 kts | 230° |
| 2026-05-07 23:09 | 36.93127 | -4.22144 | 36995 ft | 405 kts | 230° |
| 2026-05-07 23:09 | 36.89174 | -4.27167 | 36991 ft | 405 kts | 230° |
| 2026-05-07 23:10 | 36.85199 | -4.32196 | 36999 ft | 406 kts | 230° |
| 2026-05-07 23:10 | 36.81135 | -4.37098 | 37003 ft | 409 kts | 222° |
| 2026-05-07 23:11 | 36.76318 | -4.41037 | 36992 ft | 416 kts | 218° |
| 2026-05-07 23:11 | 36.71458 | -4.44905 | 36977 ft | 414 kts | 218° |
| 2026-05-07 23:12 | 36.66631 | -4.48733 | 36981 ft | 412 kts | 218° |
| 2026-05-07 23:12 | 36.61785 | -4.52568 | 36954 ft | 413 kts | 218° |
| 2026-05-07 23:13 | 36.56943 | -4.56396 | 36955 ft | 411 kts | 218° |
| 2026-05-07 23:13 | 36.52170 | -4.60186 | 36956 ft | 412 kts | 218° |
| 2026-05-07 23:14 | 36.47334 | -4.64000 | 36923 ft | 410 kts | 218° |
| 2026-05-07 23:14 | 36.42502 | -4.67804 | 36951 ft | 413 kts | 218° |
| 2026-05-07 23:15 | 36.37681 | -4.71600 | 36976 ft | 413 kts | 218° |
| 2026-05-07 23:15 | 36.32834 | -4.75400 | 36968 ft | 411 kts | 218° |
| 2026-05-07 23:16 | 36.28008 | -4.79199 | 36976 ft | 411 kts | 218° |
| 2026-05-07 23:16 | 36.23198 | -4.82963 | 36965 ft | 411 kts | 218° |
| 2026-05-07 23:17 | 36.18624 | -4.86540 | 36964 ft | 411 kts | 218° |
| 2026-05-07 23:17 | 36.13926 | -4.90215 | 36966 ft | 411 kts | 218° |